sensor_id;sensor_type;location;lat;lon;timestamp;pressure;altitude;pressure_sealevel;temperature;humidity
41862;BME280;27537;57.134;-2.136;2023-07-20T00:00:06;100829.25;;;15.02;100.00
41862;BME280;27537;57.134;-2.136;2023-07-20T00:02:33;100828.91;;;14.92;100.00
41862;BME280;27537;57.134;-2.136;2023-07-20T00:05:00;100837.50;;;14.96;100.00
41862;BME280;27537;57.134;-2.136;2023-07-20T00:07:26;100837.78;;;15.07;100.00
41862;BME280;27537;57.134;-2.136;2023-07-20T00:09:53;100830.53;;;14.95;100.00
41862;BME280;27537;57.134;-2.136;2023-07-20T00:12:20;100826.47;;;15.05;100.00
41862;BME280;27537;57.134;-2.136;2023-07-20T00:14:46;100827.28;;;14.90;100.00
41862;BME280;27537;57.134;-2.136;2023-07-20T00:17:13;100823.22;;;15.00;100.00
41862;BME280;27537;57.134;-2.136;2023-07-20T00:19:40;100820.25;;;15.06;100.00
41862;BME280;27537;57.134;-2.136;2023-07-20T00:22:06;100822.94;;;15.05;100.00
41862;BME280;27537;57.134;-2.136;2023-07-20T00:24:33;100819.47;;;15.20;100.00
41862;BME280;27537;57.134;-2.136;2023-07-20T00:27:00;100806.44;;;15.17;100.00
41862;BME280;27537;57.134;-2.136;2023-07-20T00:29:27;100817.00;;;15.17;100.00
41862;BME280;27537;57.134;-2.136;2023-07-20T00:31:54;100816.41;;;15.28;100.00
41862;BME280;27537;57.134;-2.136;2023-07-20T00:34:21;100811.81;;;15.31;100.00
41862;BME280;27537;57.134;-2.136;2023-07-20T00:36:47;100807.56;;;15.29;100.00
41862;BME280;27537;57.134;-2.136;2023-07-20T00:39:15;100811.03;;;15.29;100.00
41862;BME280;27537;57.134;-2.136;2023-07-20T00:41:42;100826.53;;;15.35;100.00
41862;BME280;27537;57.134;-2.136;2023-07-20T00:44:09;100811.72;;;15.33;100.00
41862;BME280;27537;57.134;-2.136;2023-07-20T00:46:36;100802.81;;;15.19;100.00
41862;BME280;27537;57.134;-2.136;2023-07-20T00:49:02;100815.78;;;15.38;100.00
41862;BME280;27537;57.134;-2.136;2023-07-20T00:51:30;100820.75;;;15.45;100.00
41862;BME280;27537;57.134;-2.136;2023-07-20T00:53:56;100818.53;;;15.37;100.00
41862;BME280;27537;57.134;-2.136;2023-07-20T00:56:24;100817.06;;;15.31;100.00
41862;BME280;27537;57.134;-2.136;2023-07-20T00:58:52;100825.66;;;15.35;100.00
41862;BME280;27537;57.134;-2.136;2023-07-20T01:01:18;100817.28;;;15.28;100.00
41862;BME280;27537;57.134;-2.136;2023-07-20T01:03:45;100809.28;;;15.14;100.00
41862;BME280;27537;57.134;-2.136;2023-07-20T01:09:11;100820.00;;;15.27;100.00
41862;BME280;27537;57.134;-2.136;2023-07-20T01:12:40;100816.75;;;15.22;100.00
41862;BME280;27537;57.134;-2.136;2023-07-20T01:14:59;100812.25;;;15.08;100.00
41862;BME280;27537;57.134;-2.136;2023-07-20T01:17:25;100798.06;;;14.94;100.00
41862;BME280;27537;57.134;-2.136;2023-07-20T01:19:52;100805.34;;;14.89;100.00
41862;BME280;27537;57.134;-2.136;2023-07-20T01:25:00;100807.19;;;14.87;100.00
41862;BME280;27537;57.134;-2.136;2023-07-20T01:33:09;100811.31;;;14.93;100.00
41862;BME280;27537;57.134;-2.136;2023-07-20T01:35:38;100810.03;;;15.00;100.00
41862;BME280;27537;57.134;-2.136;2023-07-20T01:38:08;100814.56;;;14.98;100.00
41862;BME280;27537;57.134;-2.136;2023-07-20T01:40:35;100809.94;;;14.86;100.00
41862;BME280;27537;57.134;-2.136;2023-07-20T01:43:02;100814.94;;;14.74;100.00
41862;BME280;27537;57.134;-2.136;2023-07-20T01:45:29;100806.19;;;14.74;100.00
41862;BME280;27537;57.134;-2.136;2023-07-20T01:47:56;100782.03;;;14.81;100.00
41862;BME280;27537;57.134;-2.136;2023-07-20T01:50:23;100798.91;;;14.95;100.00
41862;BME280;27537;57.134;-2.136;2023-07-20T01:52:50;100795.75;;;15.04;100.00
41862;BME280;27537;57.134;-2.136;2023-07-20T01:55:17;100798.53;;;14.85;100.00
41862;BME280;27537;57.134;-2.136;2023-07-20T01:57:44;100797.00;;;14.81;100.00
41862;BME280;27537;57.134;-2.136;2023-07-20T02:00:11;100798.88;;;14.79;100.00
41862;BME280;27537;57.134;-2.136;2023-07-20T02:02:38;100786.22;;;14.70;100.00
41862;BME280;27537;57.134;-2.136;2023-07-20T02:05:05;100789.19;;;14.79;100.00
41862;BME280;27537;57.134;-2.136;2023-07-20T02:07:32;100790.13;;;14.78;100.00
41862;BME280;27537;57.134;-2.136;2023-07-20T02:09:59;100785.19;;;14.88;100.00
41862;BME280;27537;57.134;-2.136;2023-07-20T02:12:26;100792.94;;;14.91;100.00
41862;BME280;27537;57.134;-2.136;2023-07-20T02:14:52;100784.94;;;14.93;100.00
41862;BME280;27537;57.134;-2.136;2023-07-20T02:17:19;100789.69;;;14.86;100.00
41862;BME280;27537;57.134;-2.136;2023-07-20T02:19:46;100788.06;;;14.84;100.00
41862;BME280;27537;57.134;-2.136;2023-07-20T02:22:16;100789.19;;;14.95;100.00
41862;BME280;27537;57.134;-2.136;2023-07-20T02:24:43;100772.25;;;14.84;100.00
41862;BME280;27537;57.134;-2.136;2023-07-20T02:27:10;100785.03;;;14.91;100.00
41862;BME280;27537;57.134;-2.136;2023-07-20T02:29:36;100785.78;;;14.77;100.00
41862;BME280;27537;57.134;-2.136;2023-07-20T02:32:04;100785.34;;;14.85;100.00
41862;BME280;27537;57.134;-2.136;2023-07-20T02:34:30;100784.75;;;14.96;100.00
41862;BME280;27537;57.134;-2.136;2023-07-20T02:36:57;100776.59;;;14.85;100.00
41862;BME280;27537;57.134;-2.136;2023-07-20T02:39:27;100779.84;;;14.90;100.00
41862;BME280;27537;57.134;-2.136;2023-07-20T02:41:54;100781.50;;;14.75;100.00
41862;BME280;27537;57.134;-2.136;2023-07-20T02:44:21;100776.16;;;14.76;100.00
41862;BME280;27537;57.134;-2.136;2023-07-20T02:46:47;100772.75;;;14.58;100.00
41862;BME280;27537;57.134;-2.136;2023-07-20T02:49:15;100780.50;;;14.77;100.00
41862;BME280;27537;57.134;-2.136;2023-07-20T02:51:42;100779.38;;;14.66;100.00
41862;BME280;27537;57.134;-2.136;2023-07-20T02:54:09;100789.22;;;14.62;100.00
41862;BME280;27537;57.134;-2.136;2023-07-20T02:56:36;100769.03;;;14.63;100.00
41862;BME280;27537;57.134;-2.136;2023-07-20T02:59:02;100770.78;;;14.62;100.00
41862;BME280;27537;57.134;-2.136;2023-07-20T03:01:29;100785.59;;;14.65;100.00
41862;BME280;27537;57.134;-2.136;2023-07-20T03:03:56;100785.91;;;14.58;100.00
41862;BME280;27537;57.134;-2.136;2023-07-20T03:06:23;100775.75;;;14.51;100.00
41862;BME280;27537;57.134;-2.136;2023-07-20T03:08:50;100783.88;;;14.64;100.00
41862;BME280;27537;57.134;-2.136;2023-07-20T03:11:19;100793.09;;;14.72;100.00
41862;BME280;27537;57.134;-2.136;2023-07-20T03:13:46;100789.00;;;14.67;100.00
41862;BME280;27537;57.134;-2.136;2023-07-20T03:16:15;100788.66;;;14.73;100.00
41862;BME280;27537;57.134;-2.136;2023-07-20T03:18:44;100791.06;;;14.77;100.00
41862;BME280;27537;57.134;-2.136;2023-07-20T03:21:11;100785.13;;;14.56;100.00
41862;BME280;27537;57.134;-2.136;2023-07-20T03:23:39;100779.22;;;14.69;100.00
41862;BME280;27537;57.134;-2.136;2023-07-20T03:26:06;100779.81;;;14.74;100.00
41862;BME280;27537;57.134;-2.136;2023-07-20T03:28:35;100773.59;;;14.75;100.00
41862;BME280;27537;57.134;-2.136;2023-07-20T03:31:02;100772.16;;;14.85;100.00
41862;BME280;27537;57.134;-2.136;2023-07-20T03:33:31;100774.13;;;14.81;100.00
41862;BME280;27537;57.134;-2.136;2023-07-20T03:35:58;100756.19;;;14.72;100.00
41862;BME280;27537;57.134;-2.136;2023-07-20T03:38:25;100767.25;;;14.95;100.00
41862;BME280;27537;57.134;-2.136;2023-07-20T03:40:53;100779.00;;;14.89;100.00
41862;BME280;27537;57.134;-2.136;2023-07-20T03:43:22;100766.75;;;14.88;100.00
41862;BME280;27537;57.134;-2.136;2023-07-20T03:45:49;100779.91;;;14.88;100.00
41862;BME280;27537;57.134;-2.136;2023-07-20T03:48:21;100770.72;;;14.79;100.00
41862;BME280;27537;57.134;-2.136;2023-07-20T03:50:50;100781.63;;;14.89;100.00
41862;BME280;27537;57.134;-2.136;2023-07-20T03:53:17;100767.16;;;14.80;100.00
41862;BME280;27537;57.134;-2.136;2023-07-20T03:55:45;100767.84;;;14.84;100.00
41862;BME280;27537;57.134;-2.136;2023-07-20T03:58:13;100774.41;;;14.93;100.00
41862;BME280;27537;57.134;-2.136;2023-07-20T04:00:46;100751.00;;;14.87;100.00
41862;BME280;27537;57.134;-2.136;2023-07-20T04:03:13;100752.66;;;14.56;100.00
41862;BME280;27537;57.134;-2.136;2023-07-20T04:05:41;100768.44;;;14.73;100.00
41862;BME280;27537;57.134;-2.136;2023-07-20T04:08:08;100761.19;;;14.61;100.00
41862;BME280;27537;57.134;-2.136;2023-07-20T04:10:35;100761.97;;;14.63;100.00
41862;BME280;27537;57.134;-2.136;2023-07-20T04:13:01;100774.09;;;14.66;100.00
41862;BME280;27537;57.134;-2.136;2023-07-20T04:15:28;100769.28;;;14.74;100.00
41862;BME280;27537;57.134;-2.136;2023-07-20T04:17:55;100770.16;;;14.57;100.00
41862;BME280;27537;57.134;-2.136;2023-07-20T04:20:23;100764.97;;;14.55;100.00
41862;BME280;27537;57.134;-2.136;2023-07-20T04:22:50;100751.28;;;14.49;100.00
41862;BME280;27537;57.134;-2.136;2023-07-20T04:25:18;100781.16;;;14.65;100.00
41862;BME280;27537;57.134;-2.136;2023-07-20T04:27:44;100769.94;;;14.61;100.00
41862;BME280;27537;57.134;-2.136;2023-07-20T04:30:12;100778.72;;;14.78;100.00
41862;BME280;27537;57.134;-2.136;2023-07-20T04:32:39;100746.84;;;14.33;100.00
41862;BME280;27537;57.134;-2.136;2023-07-20T04:38:02;100769.19;;;14.59;100.00
41862;BME280;27537;57.134;-2.136;2023-07-20T04:40:28;100777.63;;;14.49;100.00
41862;BME280;27537;57.134;-2.136;2023-07-20T04:42:55;100783.75;;;14.49;100.00
41862;BME280;27537;57.134;-2.136;2023-07-20T04:45:22;100781.44;;;14.43;100.00
41862;BME280;27537;57.134;-2.136;2023-07-20T04:47:50;100781.22;;;14.30;100.00
41862;BME280;27537;57.134;-2.136;2023-07-20T04:50:17;100784.25;;;14.40;100.00
41862;BME280;27537;57.134;-2.136;2023-07-20T04:52:45;100783.09;;;14.28;100.00
41862;BME280;27537;57.134;-2.136;2023-07-20T04:55:12;100768.53;;;14.21;100.00
41862;BME280;27537;57.134;-2.136;2023-07-20T04:57:39;100774.03;;;14.16;100.00
41862;BME280;27537;57.134;-2.136;2023-07-20T05:00:06;100770.06;;;14.25;100.00
41862;BME280;27537;57.134;-2.136;2023-07-20T05:02:33;100768.44;;;14.40;100.00
41862;BME280;27537;57.134;-2.136;2023-07-20T05:05:00;100770.19;;;14.39;100.00
41862;BME280;27537;57.134;-2.136;2023-07-20T05:07:27;100769.22;;;14.24;100.00
41862;BME280;27537;57.134;-2.136;2023-07-20T05:09:54;100777.97;;;14.25;100.00
41862;BME280;27537;57.134;-2.136;2023-07-20T05:12:21;100777.78;;;14.46;100.00
41862;BME280;27537;57.134;-2.136;2023-07-20T05:14:47;100779.28;;;14.34;100.00
41862;BME280;27537;57.134;-2.136;2023-07-20T05:17:14;100778.63;;;14.46;100.00
41862;BME280;27537;57.134;-2.136;2023-07-20T05:19:41;100777.38;;;14.53;100.00
41862;BME280;27537;57.134;-2.136;2023-07-20T05:22:13;100774.78;;;14.36;100.00
41862;BME280;27537;57.134;-2.136;2023-07-20T05:24:40;100780.72;;;14.39;100.00
41862;BME280;27537;57.134;-2.136;2023-07-20T05:27:06;100772.69;;;14.42;100.00
41862;BME280;27537;57.134;-2.136;2023-07-20T05:29:34;100779.22;;;14.18;100.00
41862;BME280;27537;57.134;-2.136;2023-07-20T05:32:00;100785.56;;;14.31;100.00
41862;BME280;27537;57.134;-2.136;2023-07-20T05:34:27;100770.56;;;14.16;100.00
41862;BME280;27537;57.134;-2.136;2023-07-20T05:36:54;100786.06;;;14.22;100.00
41862;BME280;27537;57.134;-2.136;2023-07-20T05:39:21;100772.47;;;14.30;100.00
41862;BME280;27537;57.134;-2.136;2023-07-20T05:41:48;100769.97;;;14.44;100.00
41862;BME280;27537;57.134;-2.136;2023-07-20T05:44:14;100775.50;;;14.55;100.00
41862;BME280;27537;57.134;-2.136;2023-07-20T05:46:41;100763.59;;;14.48;100.00
41862;BME280;27537;57.134;-2.136;2023-07-20T05:49:23;100772.59;;;14.61;100.00
41862;BME280;27537;57.134;-2.136;2023-07-20T05:51:50;100780.47;;;14.61;100.00
41862;BME280;27537;57.134;-2.136;2023-07-20T05:54:17;100781.00;;;14.68;100.00
41862;BME280;27537;57.134;-2.136;2023-07-20T05:56:45;100772.78;;;14.57;100.00
41862;BME280;27537;57.134;-2.136;2023-07-20T05:59:13;100771.91;;;14.74;100.00
41862;BME280;27537;57.134;-2.136;2023-07-20T06:01:39;100762.31;;;14.89;100.00
41862;BME280;27537;57.134;-2.136;2023-07-20T06:04:06;100774.03;;;14.83;100.00
41862;BME280;27537;57.134;-2.136;2023-07-20T06:06:33;100742.94;;;14.74;100.00
41862;BME280;27537;57.134;-2.136;2023-07-20T06:09:00;100777.44;;;15.01;100.00
41862;BME280;27537;57.134;-2.136;2023-07-20T06:11:30;100762.91;;;14.94;100.00
41862;BME280;27537;57.134;-2.136;2023-07-20T06:13:57;100774.31;;;14.94;100.00
41862;BME280;27537;57.134;-2.136;2023-07-20T06:16:24;100762.97;;;15.24;100.00
41862;BME280;27537;57.134;-2.136;2023-07-20T06:18:51;100772.03;;;15.50;100.00
41862;BME280;27537;57.134;-2.136;2023-07-20T06:21:18;100769.53;;;16.24;100.00
41862;BME280;27537;57.134;-2.136;2023-07-20T06:23:44;100779.59;;;16.31;100.00
41862;BME280;27537;57.134;-2.136;2023-07-20T06:26:11;100773.09;;;16.51;100.00
41862;BME280;27537;57.134;-2.136;2023-07-20T06:28:38;100775.06;;;16.33;100.00
41862;BME280;27537;57.134;-2.136;2023-07-20T06:31:05;100778.44;;;15.92;100.00
41862;BME280;27537;57.134;-2.136;2023-07-20T06:33:31;100776.53;;;15.94;100.00
41862;BME280;27537;57.134;-2.136;2023-07-20T06:35:58;100782.00;;;15.91;100.00
41862;BME280;27537;57.134;-2.136;2023-07-20T06:38:25;100778.50;;;15.91;100.00
41862;BME280;27537;57.134;-2.136;2023-07-20T06:40:55;100772.81;;;15.83;100.00
41862;BME280;27537;57.134;-2.136;2023-07-20T06:43:22;100775.00;;;15.76;100.00
41862;BME280;27537;57.134;-2.136;2023-07-20T06:45:54;100777.19;;;15.84;100.00
41862;BME280;27537;57.134;-2.136;2023-07-20T06:48:21;100782.72;;;15.17;100.00
41862;BME280;27537;57.134;-2.136;2023-07-20T06:50:48;100771.03;;;15.53;100.00
41862;BME280;27537;57.134;-2.136;2023-07-20T06:53:15;100770.63;;;15.45;100.00
41862;BME280;27537;57.134;-2.136;2023-07-20T06:55:42;100775.00;;;15.60;100.00
41862;BME280;27537;57.134;-2.136;2023-07-20T06:58:10;100771.81;;;15.85;100.00
41862;BME280;27537;57.134;-2.136;2023-07-20T07:00:36;100764.72;;;15.86;100.00
41862;BME280;27537;57.134;-2.136;2023-07-20T07:03:03;100763.53;;;16.06;100.00
41862;BME280;27537;57.134;-2.136;2023-07-20T07:05:30;100777.63;;;16.21;100.00
41862;BME280;27537;57.134;-2.136;2023-07-20T07:08:02;100775.06;;;16.05;100.00
41862;BME280;27537;57.134;-2.136;2023-07-20T07:10:29;100768.09;;;16.47;100.00
41862;BME280;27537;57.134;-2.136;2023-07-20T07:12:56;100781.03;;;16.37;100.00
41862;BME280;27537;57.134;-2.136;2023-07-20T07:15:22;100773.75;;;16.41;100.00
41862;BME280;27537;57.134;-2.136;2023-07-20T07:17:49;100773.97;;;16.52;100.00
41862;BME280;27537;57.134;-2.136;2023-07-20T07:20:16;100777.63;;;16.49;100.00
41862;BME280;27537;57.134;-2.136;2023-07-20T07:22:47;100785.81;;;16.45;100.00
41862;BME280;27537;57.134;-2.136;2023-07-20T07:25:14;100776.22;;;16.29;100.00
41862;BME280;27537;57.134;-2.136;2023-07-20T07:27:48;100780.84;;;16.26;100.00
41862;BME280;27537;57.134;-2.136;2023-07-20T07:30:15;100776.94;;;16.03;100.00
41862;BME280;27537;57.134;-2.136;2023-07-20T07:32:42;100780.81;;;15.97;100.00
41862;BME280;27537;57.134;-2.136;2023-07-20T07:35:08;100778.03;;;15.84;100.00
41862;BME280;27537;57.134;-2.136;2023-07-20T07:37:35;100767.78;;;15.94;100.00
41862;BME280;27537;57.134;-2.136;2023-07-20T07:40:22;100779.00;;;15.98;100.00
41862;BME280;27537;57.134;-2.136;2023-07-20T07:42:49;100778.91;;;15.99;100.00
41862;BME280;27537;57.134;-2.136;2023-07-20T07:45:16;100759.84;;;15.94;100.00
41862;BME280;27537;57.134;-2.136;2023-07-20T07:47:43;100779.22;;;16.38;100.00
41862;BME280;27537;57.134;-2.136;2023-07-20T07:50:10;100778.53;;;16.05;100.00
41862;BME280;27537;57.134;-2.136;2023-07-20T07:52:37;100772.94;;;15.81;100.00
41862;BME280;27537;57.134;-2.136;2023-07-20T07:55:04;100782.06;;;16.20;100.00
41862;BME280;27537;57.134;-2.136;2023-07-20T07:57:31;100780.09;;;16.38;100.00
41862;BME280;27537;57.134;-2.136;2023-07-20T07:59:58;100777.25;;;16.56;100.00
41862;BME280;27537;57.134;-2.136;2023-07-20T08:02:24;100781.50;;;16.58;100.00
41862;BME280;27537;57.134;-2.136;2023-07-20T08:04:51;100784.13;;;16.58;100.00
41862;BME280;27537;57.134;-2.136;2023-07-20T08:07:19;100772.75;;;16.43;100.00
41862;BME280;27537;57.134;-2.136;2023-07-20T08:09:45;100773.66;;;16.71;100.00
41862;BME280;27537;57.134;-2.136;2023-07-20T08:12:12;100764.19;;;16.81;100.00
41862;BME280;27537;57.134;-2.136;2023-07-20T08:14:40;100768.03;;;16.48;100.00
41862;BME280;27537;57.134;-2.136;2023-07-20T08:17:06;100769.88;;;16.61;100.00
41862;BME280;27537;57.134;-2.136;2023-07-20T08:19:33;100780.34;;;16.62;100.00
41862;BME280;27537;57.134;-2.136;2023-07-20T08:22:01;100770.44;;;16.51;100.00
41862;BME280;27537;57.134;-2.136;2023-07-20T08:24:29;100771.88;;;16.72;100.00
41862;BME280;27537;57.134;-2.136;2023-07-20T08:26:55;100773.19;;;16.64;100.00
41862;BME280;27537;57.134;-2.136;2023-07-20T08:29:23;100769.75;;;16.77;100.00
41862;BME280;27537;57.134;-2.136;2023-07-20T08:31:50;100765.75;;;16.42;100.00
41862;BME280;27537;57.134;-2.136;2023-07-20T08:34:17;100760.38;;;16.44;100.00
41862;BME280;27537;57.134;-2.136;2023-07-20T08:36:58;100776.94;;;16.75;100.00
41862;BME280;27537;57.134;-2.136;2023-07-20T08:39:25;100774.03;;;16.94;100.00
41862;BME280;27537;57.134;-2.136;2023-07-20T08:41:52;100771.75;;;17.02;100.00
41862;BME280;27537;57.134;-2.136;2023-07-20T08:44:18;100767.59;;;16.98;100.00
41862;BME280;27537;57.134;-2.136;2023-07-20T08:46:47;100763.41;;;17.08;100.00
41862;BME280;27537;57.134;-2.136;2023-07-20T08:49:16;100771.66;;;16.75;100.00
41862;BME280;27537;57.134;-2.136;2023-07-20T08:51:46;100769.94;;;17.02;100.00
41862;BME280;27537;57.134;-2.136;2023-07-20T08:54:13;100774.81;;;17.08;100.00
41862;BME280;27537;57.134;-2.136;2023-07-20T08:56:41;100780.91;;;16.82;100.00
41862;BME280;27537;57.134;-2.136;2023-07-20T08:59:09;100779.31;;;16.94;100.00
41862;BME280;27537;57.134;-2.136;2023-07-20T09:01:38;100771.00;;;17.00;100.00
41862;BME280;27537;57.134;-2.136;2023-07-20T09:04:05;100762.59;;;16.93;100.00
41862;BME280;27537;57.134;-2.136;2023-07-20T09:06:32;100775.16;;;16.61;100.00
41862;BME280;27537;57.134;-2.136;2023-07-20T09:09:01;100772.63;;;16.45;100.00
41862;BME280;27537;57.134;-2.136;2023-07-20T09:11:28;100773.84;;;16.39;100.00
41862;BME280;27537;57.134;-2.136;2023-07-20T09:14:06;100774.31;;;16.46;100.00
41862;BME280;27537;57.134;-2.136;2023-07-20T09:16:46;100780.06;;;16.81;100.00
41862;BME280;27537;57.134;-2.136;2023-07-20T09:19:15;100771.44;;;17.06;100.00
41862;BME280;27537;57.134;-2.136;2023-07-20T09:21:50;100786.41;;;16.93;100.00
41862;BME280;27537;57.134;-2.136;2023-07-20T09:24:20;100769.91;;;17.17;100.00
41862;BME280;27537;57.134;-2.136;2023-07-20T09:26:49;100768.09;;;16.90;100.00
41862;BME280;27537;57.134;-2.136;2023-07-20T09:29:19;100758.25;;;16.92;100.00
41862;BME280;27537;57.134;-2.136;2023-07-20T09:32:02;100770.31;;;17.11;100.00
41862;BME280;27537;57.134;-2.136;2023-07-20T09:34:31;100761.81;;;17.05;100.00
41862;BME280;27537;57.134;-2.136;2023-07-20T09:37:03;100770.47;;;17.22;100.00
41862;BME280;27537;57.134;-2.136;2023-07-20T09:39:31;100755.97;;;17.27;100.00
41862;BME280;27537;57.134;-2.136;2023-07-20T09:42:01;100761.19;;;17.42;100.00
41862;BME280;27537;57.134;-2.136;2023-07-20T09:44:31;100771.78;;;17.69;100.00
41862;BME280;27537;57.134;-2.136;2023-07-20T09:47:03;100771.25;;;17.37;100.00
41862;BME280;27537;57.134;-2.136;2023-07-20T09:49:31;100769.13;;;17.42;100.00
41862;BME280;27537;57.134;-2.136;2023-07-20T09:52:18;100772.53;;;17.44;100.00
41862;BME280;27537;57.134;-2.136;2023-07-20T09:55:08;100765.94;;;17.37;100.00
41862;BME280;27537;57.134;-2.136;2023-07-20T09:57:35;100774.09;;;17.34;100.00
41862;BME280;27537;57.134;-2.136;2023-07-20T10:00:07;100771.59;;;17.45;100.00
41862;BME280;27537;57.134;-2.136;2023-07-20T10:02:44;100764.91;;;17.39;100.00
41862;BME280;27537;57.134;-2.136;2023-07-20T10:05:13;100750.25;;;17.74;100.00
41862;BME280;27537;57.134;-2.136;2023-07-20T10:07:48;100754.25;;;18.07;100.00
41862;BME280;27537;57.134;-2.136;2023-07-20T10:10:18;100746.91;;;18.36;100.00
41862;BME280;27537;57.134;-2.136;2023-07-20T10:12:47;100755.78;;;18.73;100.00
41862;BME280;27537;57.134;-2.136;2023-07-20T10:15:24;100767.44;;;18.84;100.00
41862;BME280;27537;57.134;-2.136;2023-07-20T10:21:01;100757.97;;;18.92;100.00
41862;BME280;27537;57.134;-2.136;2023-07-20T10:23:32;100753.59;;;19.04;100.00
41862;BME280;27537;57.134;-2.136;2023-07-20T10:26:01;100761.50;;;19.17;100.00
41862;BME280;27537;57.134;-2.136;2023-07-20T10:28:29;100756.19;;;19.17;100.00
41862;BME280;27537;57.134;-2.136;2023-07-20T10:30:56;100751.97;;;19.14;100.00
41862;BME280;27537;57.134;-2.136;2023-07-20T10:33:23;100745.59;;;18.93;100.00
41862;BME280;27537;57.134;-2.136;2023-07-20T10:35:56;100766.16;;;18.76;100.00
41862;BME280;27537;57.134;-2.136;2023-07-20T10:38:42;100759.69;;;18.68;100.00
41862;BME280;27537;57.134;-2.136;2023-07-20T10:43:51;100759.22;;;19.00;100.00
41862;BME280;27537;57.134;-2.136;2023-07-20T10:49:07;100762.84;;;18.10;100.00
41862;BME280;27537;57.134;-2.136;2023-07-20T10:51:48;100768.72;;;17.35;100.00
41862;BME280;27537;57.134;-2.136;2023-07-20T10:56:43;100755.56;;;17.06;100.00
41862;BME280;27537;57.134;-2.136;2023-07-20T11:01:55;100751.38;;;17.17;100.00
41862;BME280;27537;57.134;-2.136;2023-07-20T11:04:40;100741.34;;;17.22;100.00
41862;BME280;27537;57.134;-2.136;2023-07-20T11:07:07;100752.13;;;17.19;100.00
41862;BME280;27537;57.134;-2.136;2023-07-20T11:09:36;100763.25;;;17.24;100.00
41862;BME280;27537;57.134;-2.136;2023-07-20T11:12:11;100752.28;;;17.03;100.00
41862;BME280;27537;57.134;-2.136;2023-07-20T11:14:53;100750.09;;;17.10;100.00
41862;BME280;27537;57.134;-2.136;2023-07-20T11:17:20;100749.47;;;16.92;100.00
41862;BME280;27537;57.134;-2.136;2023-07-20T11:19:49;100744.50;;;17.14;100.00
41862;BME280;27537;57.134;-2.136;2023-07-20T11:22:19;100744.34;;;17.03;100.00
41862;BME280;27537;57.134;-2.136;2023-07-20T11:24:46;100748.78;;;17.02;100.00
41862;BME280;27537;57.134;-2.136;2023-07-20T11:27:13;100742.00;;;17.25;100.00
41862;BME280;27537;57.134;-2.136;2023-07-20T11:29:39;100749.91;;;17.13;100.00
41862;BME280;27537;57.134;-2.136;2023-07-20T11:32:06;100751.47;;;17.15;100.00
41862;BME280;27537;57.134;-2.136;2023-07-20T11:34:35;100750.38;;;17.32;100.00
41862;BME280;27537;57.134;-2.136;2023-07-20T11:37:02;100749.03;;;17.39;100.00
41862;BME280;27537;57.134;-2.136;2023-07-20T11:39:33;100745.09;;;17.32;100.00
41862;BME280;27537;57.134;-2.136;2023-07-20T11:41:59;100743.75;;;17.39;100.00
41862;BME280;27537;57.134;-2.136;2023-07-20T11:44:27;100753.59;;;17.37;100.00
41862;BME280;27537;57.134;-2.136;2023-07-20T11:47:11;100756.25;;;17.50;100.00
41862;BME280;27537;57.134;-2.136;2023-07-20T11:49:42;100749.03;;;17.39;100.00
41862;BME280;27537;57.134;-2.136;2023-07-20T11:52:15;100746.59;;;17.36;100.00
41862;BME280;27537;57.134;-2.136;2023-07-20T11:54:43;100751.66;;;17.26;100.00
41862;BME280;27537;57.134;-2.136;2023-07-20T11:57:21;100749.19;;;17.23;100.00
41862;BME280;27537;57.134;-2.136;2023-07-20T11:59:58;100753.19;;;17.16;100.00
41862;BME280;27537;57.134;-2.136;2023-07-20T12:02:31;100757.47;;;17.04;100.00
41862;BME280;27537;57.134;-2.136;2023-07-20T12:04:58;100760.50;;;16.69;100.00
41862;BME280;27537;57.134;-2.136;2023-07-20T12:07:28;100757.88;;;16.69;100.00
41862;BME280;27537;57.134;-2.136;2023-07-20T12:10:11;100756.31;;;16.38;100.00
41862;BME280;27537;57.134;-2.136;2023-07-20T12:12:38;100762.03;;;16.16;100.00
41862;BME280;27537;57.134;-2.136;2023-07-20T12:15:25;100753.75;;;16.08;100.00
41862;BME280;27537;57.134;-2.136;2023-07-20T12:17:58;100754.03;;;16.18;100.00
41862;BME280;27537;57.134;-2.136;2023-07-20T12:20:36;100755.81;;;16.03;100.00
41862;BME280;27537;57.134;-2.136;2023-07-20T12:23:11;100742.88;;;15.98;100.00
41862;BME280;27537;57.134;-2.136;2023-07-20T12:25:42;100738.34;;;16.00;100.00
41862;BME280;27537;57.134;-2.136;2023-07-20T12:28:11;100743.66;;;16.29;100.00
41862;BME280;27537;57.134;-2.136;2023-07-20T12:30:39;100726.94;;;16.43;100.00
41862;BME280;27537;57.134;-2.136;2023-07-20T12:33:06;100742.28;;;16.79;100.00
41862;BME280;27537;57.134;-2.136;2023-07-20T12:35:34;100736.44;;;16.74;100.00
41862;BME280;27537;57.134;-2.136;2023-07-20T12:38:00;100733.28;;;17.11;100.00
41862;BME280;27537;57.134;-2.136;2023-07-20T12:40:27;100726.56;;;17.32;100.00
41862;BME280;27537;57.134;-2.136;2023-07-20T12:42:54;100720.53;;;17.30;100.00
41862;BME280;27537;57.134;-2.136;2023-07-20T12:45:21;100722.03;;;17.47;100.00
41862;BME280;27537;57.134;-2.136;2023-07-20T12:47:48;100720.94;;;17.64;100.00
41862;BME280;27537;57.134;-2.136;2023-07-20T12:50:16;100717.56;;;17.75;100.00
41862;BME280;27537;57.134;-2.136;2023-07-20T12:52:42;100715.63;;;17.77;100.00
41862;BME280;27537;57.134;-2.136;2023-07-20T12:55:10;100704.81;;;17.54;100.00
41862;BME280;27537;57.134;-2.136;2023-07-20T12:57:37;100720.13;;;17.36;100.00
41862;BME280;27537;57.134;-2.136;2023-07-20T13:00:06;100713.16;;;17.48;100.00
41862;BME280;27537;57.134;-2.136;2023-07-20T13:02:34;100717.94;;;17.69;100.00
41862;BME280;27537;57.134;-2.136;2023-07-20T13:05:02;100715.00;;;17.73;100.00